sensor_id;sensor_type;location;lat;lon;timestamp;pressure;altitude;pressure_sealevel;temperature;humidity
61906;BME280;47863;55.766;37.672;2023-07-29T00:00:41;98912.31;;;16.50;87.02
61906;BME280;47863;55.766;37.672;2023-07-29T00:03:08;98891.56;;;16.44;87.16
61906;BME280;47863;55.766;37.672;2023-07-29T00:05:34;98905.41;;;16.54;86.99
61906;BME280;47863;55.766;37.672;2023-07-29T00:07:59;98877.66;;;16.40;86.59
61906;BME280;47863;55.766;37.672;2023-07-29T00:10:25;98907.06;;;16.55;86.67
61906;BME280;47863;55.766;37.672;2023-07-29T00:12:51;98881.44;;;16.39;86.60
61906;BME280;47863;55.766;37.672;2023-07-29T00:15:17;98886.22;;;16.37;86.71
61906;BME280;47863;55.766;37.672;2023-07-29T00:17:42;98907.88;;;16.56;86.71
61906;BME280;47863;55.766;37.672;2023-07-29T00:20:08;98862.78;;;16.31;86.81
61906;BME280;47863;55.766;37.672;2023-07-29T00:22:34;98876.63;;;16.41;86.68
61906;BME280;47863;55.766;37.672;2023-07-29T00:24:59;98911.81;;;16.60;86.68
61906;BME280;47863;55.766;37.672;2023-07-29T00:27:25;98918.03;;;16.60;86.63
61906;BME280;47863;55.766;37.672;2023-07-29T00:29:51;98896.91;;;16.51;86.68
61906;BME280;47863;55.766;37.672;2023-07-29T00:32:18;98912.19;;;16.63;86.78
61906;BME280;47863;55.766;37.672;2023-07-29T00:34:44;98911.81;;;16.60;86.74
61906;BME280;47863;55.766;37.672;2023-07-29T00:37:10;98914.69;;;16.65;86.74
61906;BME280;47863;55.766;37.672;2023-07-29T00:39:36;98893.38;;;16.50;86.54
61906;BME280;47863;55.766;37.672;2023-07-29T00:42:05;98915.94;;;16.62;86.60
61906;BME280;47863;55.766;37.672;2023-07-29T00:44:31;98911.38;;;16.63;86.51
61906;BME280;47863;55.766;37.672;2023-07-29T00:47:00;98891.50;;;16.51;86.61
61906;BME280;47863;55.766;37.672;2023-07-29T00:49:28;98907.00;;;16.62;86.64
61906;BME280;47863;55.766;37.672;2023-07-29T00:51:54;98891.50;;;16.51;86.68
61906;BME280;47863;55.766;37.672;2023-07-29T00:54:20;98835.22;;;16.22;86.52
61906;BME280;47863;55.766;37.672;2023-07-29T00:56:45;98892.44;;;16.63;86.85
61906;BME280;47863;55.766;37.672;2023-07-29T00:59:11;98898.06;;;16.61;86.68
61906;BME280;47863;55.766;37.672;2023-07-29T01:01:37;98873.25;;;16.46;86.74
61906;BME280;47863;55.766;37.672;2023-07-29T01:04:03;98878.25;;;16.42;86.79
61906;BME280;47863;55.766;37.672;2023-07-29T01:06:58;98899.41;;;16.52;86.77
61906;BME280;47863;55.766;37.672;2023-07-29T01:17:27;98871.88;;;16.37;86.77
61906;BME280;47863;55.766;37.672;2023-07-29T01:20:00;98885.84;;;16.34;86.82
61906;BME280;47863;55.766;37.672;2023-07-29T01:22:35;98874.31;;;16.20;86.97
61906;BME280;47863;55.766;37.672;2023-07-29T01:25:02;98880.25;;;16.29;87.03
61906;BME280;47863;55.766;37.672;2023-07-29T01:27:30;98874.25;;;16.26;86.95
61906;BME280;47863;55.766;37.672;2023-07-29T01:29:57;98863.13;;;16.16;86.98
61906;BME280;47863;55.766;37.672;2023-07-29T01:35:31;98874.31;;;16.20;87.00
61906;BME280;47863;55.766;37.672;2023-07-29T01:38:17;98869.78;;;16.14;87.06
61906;BME280;47863;55.766;37.672;2023-07-29T01:40:44;98863.19;;;16.10;86.92
61906;BME280;47863;55.766;37.672;2023-07-29T01:43:10;98855.72;;;16.05;86.93
61906;BME280;47863;55.766;37.672;2023-07-29T01:45:36;98812.91;;;15.77;86.89
61906;BME280;47863;55.766;37.672;2023-07-29T01:48:05;98829.03;;;15.90;87.06
61906;BME280;47863;55.766;37.672;2023-07-29T01:50:31;98843.91;;;15.99;86.84
61906;BME280;47863;55.766;37.672;2023-07-29T01:52:59;98841.44;;;15.98;87.01
61906;BME280;47863;55.766;37.672;2023-07-29T01:55:25;98840.59;;;15.97;87.10
61906;BME280;47863;55.766;37.672;2023-07-29T01:57:51;98840.59;;;15.97;87.06
61906;BME280;47863;55.766;37.672;2023-07-29T02:00:18;98836.69;;;15.93;87.03
61906;BME280;47863;55.766;37.672;2023-07-29T02:02:45;98847.22;;;16.01;87.17
61906;BME280;47863;55.766;37.672;2023-07-29T02:05:10;98850.56;;;16.03;87.18
61906;BME280;47863;55.766;37.672;2023-07-29T02:07:36;98850.31;;;16.05;87.11
61906;BME280;47863;55.766;37.672;2023-07-29T02:10:01;98862.56;;;16.08;87.12
61906;BME280;47863;55.766;37.672;2023-07-29T02:12:29;98854.47;;;16.08;87.06
61906;BME280;47863;55.766;37.672;2023-07-29T02:14:56;98848.69;;;15.97;86.96
61906;BME280;47863;55.766;37.672;2023-07-29T02:17:21;98869.41;;;16.10;87.33
61906;BME280;47863;55.766;37.672;2023-07-29T02:19:47;98874.59;;;16.12;87.08
61906;BME280;47863;55.766;37.672;2023-07-29T02:22:14;98844.78;;;15.93;87.11
61906;BME280;47863;55.766;37.672;2023-07-29T02:24:40;98879.53;;;16.15;87.13
61906;BME280;47863;55.766;37.672;2023-07-29T02:27:06;98865.50;;;15.99;87.15
61906;BME280;47863;55.766;37.672;2023-07-29T02:29:32;98884.38;;;16.06;87.19
61906;BME280;47863;55.766;37.672;2023-07-29T02:31:59;98901.94;;;16.22;87.09
61906;BME280;47863;55.766;37.672;2023-07-29T02:34:24;98903.38;;;16.24;87.20
61906;BME280;47863;55.766;37.672;2023-07-29T02:36:50;98902.09;;;16.27;87.29
61906;BME280;47863;55.766;37.672;2023-07-29T02:39:16;98896.69;;;16.27;87.03
61906;BME280;47863;55.766;37.672;2023-07-29T02:41:41;98890.03;;;16.30;87.15
61906;BME280;47863;55.766;37.672;2023-07-29T02:44:07;98829.78;;;15.97;87.18
61906;BME280;47863;55.766;37.672;2023-07-29T02:46:32;98876.53;;;16.30;87.08
61906;BME280;47863;55.766;37.672;2023-07-29T02:48:58;98880.66;;;16.32;87.14
61906;BME280;47863;55.766;37.672;2023-07-29T02:51:24;98873.34;;;16.33;87.09
61906;BME280;47863;55.766;37.672;2023-07-29T02:53:50;98868.19;;;16.31;87.11
61906;BME280;47863;55.766;37.672;2023-07-29T02:56:15;98856.00;;;16.22;87.20
61906;BME280;47863;55.766;37.672;2023-07-29T02:58:41;98871.94;;;16.30;87.28
61906;BME280;47863;55.766;37.672;2023-07-29T03:01:07;98887.13;;;16.31;87.05
61906;BME280;47863;55.766;37.672;2023-07-29T03:03:33;98869.94;;;16.19;87.30
61906;BME280;47863;55.766;37.672;2023-07-29T03:06:09;98889.56;;;16.33;87.41
61906;BME280;47863;55.766;37.672;2023-07-29T03:08:35;98891.25;;;16.34;87.34
61906;BME280;47863;55.766;37.672;2023-07-29T03:11:13;98886.66;;;16.34;87.50
61906;BME280;47863;55.766;37.672;2023-07-29T03:13:39;98876.91;;;16.33;87.37
61906;BME280;47863;55.766;37.672;2023-07-29T03:16:13;98875.03;;;16.34;87.42
61906;BME280;47863;55.766;37.672;2023-07-29T03:18:39;98870.44;;;16.34;87.35
61906;BME280;47863;55.766;37.672;2023-07-29T03:21:06;98857.53;;;16.36;87.38
61906;BME280;47863;55.766;37.672;2023-07-29T03:23:32;98839.59;;;16.23;87.33
61906;BME280;47863;55.766;37.672;2023-07-29T03:25:59;98854.63;;;16.38;87.44
61906;BME280;47863;55.766;37.672;2023-07-29T03:28:26;98857.09;;;16.39;87.35
61906;BME280;47863;55.766;37.672;2023-07-29T03:30:54;98843.03;;;16.31;87.39
61906;BME280;47863;55.766;37.672;2023-07-29T03:33:19;98853.63;;;16.32;87.51
61906;BME280;47863;55.766;37.672;2023-07-29T03:35:45;98832.50;;;16.22;87.20
61906;BME280;47863;55.766;37.672;2023-07-29T03:38:11;98848.69;;;16.29;87.41
61906;BME280;47863;55.766;37.672;2023-07-29T03:40:38;98836.19;;;16.28;87.45
61906;BME280;47863;55.766;37.672;2023-07-29T03:43:04;98842.59;;;16.34;87.49
61906;BME280;47863;55.766;37.672;2023-07-29T03:45:29;98796.88;;;16.07;87.31
61906;BME280;47863;55.766;37.672;2023-07-29T03:47:55;98841.31;;;16.36;87.36
61906;BME280;47863;55.766;37.672;2023-07-29T03:50:20;98803.19;;;16.26;87.25
61906;BME280;47863;55.766;37.672;2023-07-29T03:52:46;98827.97;;;16.41;87.35
61906;BME280;47863;55.766;37.672;2023-07-29T03:55:11;98830.00;;;16.46;87.27
61906;BME280;47863;55.766;37.672;2023-07-29T03:57:37;98826.41;;;16.52;87.12
61906;BME280;47863;55.766;37.672;2023-07-29T04:00:03;98811.63;;;16.55;87.33
61906;BME280;47863;55.766;37.672;2023-07-29T04:02:31;98792.75;;;16.48;86.96
61906;BME280;47863;55.766;37.672;2023-07-29T04:04:56;98811.34;;;16.63;86.98
61906;BME280;47863;55.766;37.672;2023-07-29T04:07:22;98783.97;;;16.53;87.21
61906;BME280;47863;55.766;37.672;2023-07-29T04:09:48;98811.69;;;16.66;87.12
61906;BME280;47863;55.766;37.672;2023-07-29T04:12:15;98815.25;;;16.67;87.38
61906;BME280;47863;55.766;37.672;2023-07-29T04:14:40;98801.19;;;16.58;87.06
61906;BME280;47863;55.766;37.672;2023-07-29T04:17:07;98797.44;;;16.59;87.10
61906;BME280;47863;55.766;37.672;2023-07-29T04:19:32;98799.41;;;16.71;86.94
61906;BME280;47863;55.766;37.672;2023-07-29T04:21:58;98803.53;;;16.73;87.06
61906;BME280;47863;55.766;37.672;2023-07-29T04:24:24;98811.38;;;16.81;86.88
61906;BME280;47863;55.766;37.672;2023-07-29T04:26:50;98814.47;;;16.78;87.00
61906;BME280;47863;55.766;37.672;2023-07-29T04:29:15;98807.38;;;16.84;86.90
61906;BME280;47863;55.766;37.672;2023-07-29T04:31:41;98811.28;;;16.88;86.94
61906;BME280;47863;55.766;37.672;2023-07-29T04:34:08;98795.53;;;16.85;86.90
61906;BME280;47863;55.766;37.672;2023-07-29T04:36:34;98799.31;;;16.96;86.89
61906;BME280;47863;55.766;37.672;2023-07-29T04:39:00;98787.53;;;16.90;86.86
61906;BME280;47863;55.766;37.672;2023-07-29T04:41:25;98801.59;;;16.99;86.79
61906;BME280;47863;55.766;37.672;2023-07-29T04:43:51;98795.59;;;16.97;86.76
61906;BME280;47863;55.766;37.672;2023-07-29T04:46:17;98793.31;;;16.94;86.57
61906;BME280;47863;55.766;37.672;2023-07-29T04:48:43;98792.94;;;16.90;86.61
61906;BME280;47863;55.766;37.672;2023-07-29T04:51:09;98797.69;;;16.95;86.66
61906;BME280;47863;55.766;37.672;2023-07-29T04:53:34;98801.53;;;16.87;86.65
61906;BME280;47863;55.766;37.672;2023-07-29T04:56:02;98791.22;;;16.77;86.62
61906;BME280;47863;55.766;37.672;2023-07-29T04:58:28;98799.63;;;16.88;86.83
61906;BME280;47863;55.766;37.672;2023-07-29T05:00:55;98787.53;;;16.90;86.73
61906;BME280;47863;55.766;37.672;2023-07-29T05:03:21;98792.72;;;16.92;86.86
61906;BME280;47863;55.766;37.672;2023-07-29T05:05:47;98763.69;;;16.80;86.80
61906;BME280;47863;55.766;37.672;2023-07-29T05:08:12;98778.28;;;16.98;86.68
61906;BME280;47863;55.766;37.672;2023-07-29T05:10:38;98756.97;;;16.90;86.62
61906;BME280;47863;55.766;37.672;2023-07-29T05:13:03;98757.94;;;16.95;86.52
61906;BME280;47863;55.766;37.672;2023-07-29T05:15:29;98769.13;;;16.99;86.41
61906;BME280;47863;55.766;37.672;2023-07-29T05:17:54;98743.44;;;16.90;86.26
61906;BME280;47863;55.766;37.672;2023-07-29T05:20:20;98781.75;;;17.05;86.23
61906;BME280;47863;55.766;37.672;2023-07-29T05:22:45;98768.00;;;17.07;86.35
61906;BME280;47863;55.766;37.672;2023-07-29T05:25:11;98763.84;;;17.04;86.33
61906;BME280;47863;55.766;37.672;2023-07-29T05:27:37;98764.00;;;17.09;86.24
61906;BME280;47863;55.766;37.672;2023-07-29T05:30:02;98760.84;;;17.12;86.11
61906;BME280;47863;55.766;37.672;2023-07-29T05:32:29;98750.38;;;17.16;86.18
61906;BME280;47863;55.766;37.672;2023-07-29T05:34:55;98758.41;;;17.22;86.11
61906;BME280;47863;55.766;37.672;2023-07-29T05:37:20;98751.34;;;17.21;86.04
61906;BME280;47863;55.766;37.672;2023-07-29T05:39:46;98762.56;;;17.37;86.06
61906;BME280;47863;55.766;37.672;2023-07-29T05:42:11;98763.75;;;17.41;85.98
61906;BME280;47863;55.766;37.672;2023-07-29T05:44:37;98780.25;;;17.51;85.87
61906;BME280;47863;55.766;37.672;2023-07-29T05:47:03;98780.84;;;17.53;85.77
61906;BME280;47863;55.766;37.672;2023-07-29T05:49:28;98758.72;;;17.44;85.83
61906;BME280;47863;55.766;37.672;2023-07-29T05:51:54;98762.16;;;17.52;85.76
61906;BME280;47863;55.766;37.672;2023-07-29T05:54:19;98780.66;;;17.67;85.70
61906;BME280;47863;55.766;37.672;2023-07-29T05:56:45;98796.00;;;17.73;85.59
61906;BME280;47863;55.766;37.672;2023-07-29T05:59:11;98762.75;;;17.54;85.64
61906;BME280;47863;55.766;37.672;2023-07-29T06:01:36;98802.84;;;17.75;85.70
61906;BME280;47863;55.766;37.672;2023-07-29T06:04:02;98792.44;;;17.60;85.43
61906;BME280;47863;55.766;37.672;2023-07-29T06:06:28;98806.44;;;17.69;85.72
61906;BME280;47863;55.766;37.672;2023-07-29T06:08:53;98813.97;;;17.67;85.55
61906;BME280;47863;55.766;37.672;2023-07-29T06:11:19;98810.09;;;17.63;85.85
61906;BME280;47863;55.766;37.672;2023-07-29T06:13:47;98815.28;;;17.64;85.80
61906;BME280;47863;55.766;37.672;2023-07-29T06:16:12;98815.88;;;17.67;85.77
61906;BME280;47863;55.766;37.672;2023-07-29T06:18:38;98817.75;;;17.66;85.71
61906;BME280;47863;55.766;37.672;2023-07-29T06:21:04;98819.41;;;17.67;85.78
61906;BME280;47863;55.766;37.672;2023-07-29T06:23:36;98824.59;;;17.69;85.62
61906;BME280;47863;55.766;37.672;2023-07-29T06:26:01;98826.47;;;17.68;85.54
61906;BME280;47863;55.766;37.672;2023-07-29T06:28:27;98826.94;;;17.65;85.59
61906;BME280;47863;55.766;37.672;2023-07-29T06:30:52;98797.22;;;17.47;85.58
61906;BME280;47863;55.766;37.672;2023-07-29T06:33:18;98818.31;;;17.56;85.59
61906;BME280;47863;55.766;37.672;2023-07-29T06:35:44;98824.91;;;17.60;85.61
61906;BME280;47863;55.766;37.672;2023-07-29T06:38:10;98835.31;;;17.63;85.59
61906;BME280;47863;55.766;37.672;2023-07-29T06:40:35;98818.16;;;17.51;85.69
61906;BME280;47863;55.766;37.672;2023-07-29T06:43:01;98844.47;;;17.62;85.75
61906;BME280;47863;55.766;37.672;2023-07-29T06:45:26;98808.16;;;17.40;85.73
61906;BME280;47863;55.766;37.672;2023-07-29T06:47:52;98841.38;;;17.59;85.63
61906;BME280;47863;55.766;37.672;2023-07-29T06:50:18;98827.38;;;17.50;85.58
61906;BME280;47863;55.766;37.672;2023-07-29T06:52:44;98829.16;;;17.56;85.76
61906;BME280;47863;55.766;37.672;2023-07-29T06:55:10;98818.06;;;17.46;85.64
61906;BME280;47863;55.766;37.672;2023-07-29T06:57:36;98823.91;;;17.43;85.72
61906;BME280;47863;55.766;37.672;2023-07-29T07:00:02;98843.72;;;17.55;85.76
61906;BME280;47863;55.766;37.672;2023-07-29T07:02:31;98832.19;;;17.48;85.85
61906;BME280;47863;55.766;37.672;2023-07-29T07:04:57;98840.69;;;17.52;85.72
61906;BME280;47863;55.766;37.672;2023-07-29T07:07:22;98831.44;;;17.41;85.89
61906;BME280;47863;55.766;37.672;2023-07-29T07:09:48;98824.47;;;17.33;85.99
61906;BME280;47863;55.766;37.672;2023-07-29T07:12:14;98847.47;;;17.42;86.04
61906;BME280;47863;55.766;37.672;2023-07-29T07:14:39;98840.63;;;17.40;85.90
61906;BME280;47863;55.766;37.672;2023-07-29T07:17:05;98822.44;;;17.29;85.89
61906;BME280;47863;55.766;37.672;2023-07-29T07:19:30;98846.84;;;17.40;85.88
61906;BME280;47863;55.766;37.672;2023-07-29T07:21:56;98840.03;;;17.38;85.71
61906;BME280;47863;55.766;37.672;2023-07-29T07:24:22;98849.78;;;17.39;85.84
61906;BME280;47863;55.766;37.672;2023-07-29T07:26:47;98825.75;;;17.31;85.66
61906;BME280;47863;55.766;37.672;2023-07-29T07:29:13;98848.88;;;17.45;85.84
61906;BME280;47863;55.766;37.672;2023-07-29T07:31:38;98846.91;;;17.52;85.87
61906;BME280;47863;55.766;37.672;2023-07-29T07:34:04;98802.22;;;17.31;85.64
61906;BME280;47863;55.766;37.672;2023-07-29T07:36:29;98839.50;;;17.59;85.33
61906;BME280;47863;55.766;37.672;2023-07-29T07:38:56;98843.53;;;17.69;85.46
61906;BME280;47863;55.766;37.672;2023-07-29T07:41:21;98843.91;;;17.72;85.31
61906;BME280;47863;55.766;37.672;2023-07-29T07:43:47;98821.41;;;17.60;85.50
61906;BME280;47863;55.766;37.672;2023-07-29T07:46:13;98848.63;;;17.77;85.33
61906;BME280;47863;55.766;37.672;2023-07-29T07:48:38;98848.03;;;17.75;85.21
61906;BME280;47863;55.766;37.672;2023-07-29T07:51:11;98854.91;;;17.77;85.44
61906;BME280;47863;55.766;37.672;2023-07-29T07:53:37;98856.91;;;17.82;85.57
61906;BME280;47863;55.766;37.672;2023-07-29T07:56:03;98856.22;;;17.87;85.27
61906;BME280;47863;55.766;37.672;2023-07-29T07:58:28;98851.28;;;17.83;85.24
61906;BME280;47863;55.766;37.672;2023-07-29T08:01:01;98853.88;;;17.90;85.24
61906;BME280;47863;55.766;37.672;2023-07-29T08:03:27;98857.41;;;17.91;85.41
61906;BME280;47863;55.766;37.672;2023-07-29T08:05:52;98863.19;;;17.94;85.23
61906;BME280;47863;55.766;37.672;2023-07-29T08:08:18;98857.56;;;17.96;85.24
61906;BME280;47863;55.766;37.672;2023-07-29T08:10:43;98852.72;;;17.98;85.36
61906;BME280;47863;55.766;37.672;2023-07-29T08:13:09;98833.88;;;17.91;85.10
61906;BME280;47863;55.766;37.672;2023-07-29T08:15:34;98841.66;;;17.99;84.89
61906;BME280;47863;55.766;37.672;2023-07-29T08:18:00;98836.94;;;17.95;85.06
61906;BME280;47863;55.766;37.672;2023-07-29T08:20:25;98843.66;;;17.92;85.13
61906;BME280;47863;55.766;37.672;2023-07-29T08:22:51;98858.53;;;18.01;85.15
61906;BME280;47863;55.766;37.672;2023-07-29T08:25:17;98857.94;;;17.99;85.23
61906;BME280;47863;55.766;37.672;2023-07-29T08:27:42;98826.84;;;17.72;85.38
61906;BME280;47863;55.766;37.672;2023-07-29T08:30:08;98844.41;;;17.81;85.19
61906;BME280;47863;55.766;37.672;2023-07-29T08:32:34;98848.63;;;17.77;85.34
61906;BME280;47863;55.766;37.672;2023-07-29T08:35:00;98852.09;;;17.84;85.40
61906;BME280;47863;55.766;37.672;2023-07-29T08:37:25;98864.34;;;17.87;85.19
61906;BME280;47863;55.766;37.672;2023-07-29T08:39:52;98874.03;;;17.94;85.38
61906;BME280;47863;55.766;37.672;2023-07-29T08:42:19;98837.19;;;17.75;85.35
61906;BME280;47863;55.766;37.672;2023-07-29T08:44:49;98855.19;;;17.88;85.29
61906;BME280;47863;55.766;37.672;2023-07-29T08:47:15;98876.41;;;18.02;85.07
61906;BME280;47863;55.766;37.672;2023-07-29T08:49:42;98878.06;;;18.03;85.05
61906;BME280;47863;55.766;37.672;2023-07-29T08:52:09;98852.47;;;17.88;84.95
61906;BME280;47863;55.766;37.672;2023-07-29T08:54:35;98869.34;;;18.01;84.92
61906;BME280;47863;55.766;37.672;2023-07-29T08:57:01;98880.81;;;18.15;85.00
61906;BME280;47863;55.766;37.672;2023-07-29T08:59:28;98877.16;;;18.21;84.79
61906;BME280;47863;55.766;37.672;2023-07-29T09:01:54;98873.16;;;18.24;84.83
61906;BME280;47863;55.766;37.672;2023-07-29T09:04:23;98872.56;;;18.22;84.80
61906;BME280;47863;55.766;37.672;2023-07-29T09:06:50;98869.19;;;18.27;84.54
61906;BME280;47863;55.766;37.672;2023-07-29T09:09:17;98866.78;;;18.30;84.76
61906;BME280;47863;55.766;37.672;2023-07-29T09:11:43;98865.53;;;18.33;84.51
61906;BME280;47863;55.766;37.672;2023-07-29T09:14:09;98869.66;;;18.35;84.75
61906;BME280;47863;55.766;37.672;2023-07-29T09:16:35;98862.56;;;18.34;84.53
61906;BME280;47863;55.766;37.672;2023-07-29T09:19:02;98878.13;;;18.39;84.74
61906;BME280;47863;55.766;37.672;2023-07-29T09:21:29;98873.53;;;18.39;84.71
61906;BME280;47863;55.766;37.672;2023-07-29T09:23:55;98876.69;;;18.36;84.44
61906;BME280;47863;55.766;37.672;2023-07-29T09:26:25;98878.00;;;18.34;84.72
61906;BME280;47863;55.766;37.672;2023-07-29T09:28:55;98875.28;;;18.34;84.44
61906;BME280;47863;55.766;37.672;2023-07-29T09:31:23;98864.09;;;18.30;84.14
61906;BME280;47863;55.766;37.672;2023-07-29T09:33:49;98855.63;;;18.27;84.45
61906;BME280;47863;55.766;37.672;2023-07-29T09:36:15;98884.50;;;18.45;84.19
61906;BME280;47863;55.766;37.672;2023-07-29T09:38:43;98889.44;;;18.48;84.27
61906;BME280;47863;55.766;37.672;2023-07-29T09:41:12;98869.53;;;18.42;84.16
61906;BME280;47863;55.766;37.672;2023-07-29T09:43:39;98870.69;;;18.46;83.94
61906;BME280;47863;55.766;37.672;2023-07-29T09:46:05;98894.66;;;18.61;84.16
61906;BME280;47863;55.766;37.672;2023-07-29T09:48:38;98895.69;;;18.60;84.08
61906;BME280;47863;55.766;37.672;2023-07-29T09:51:14;98896.78;;;18.59;84.10
61906;BME280;47863;55.766;37.672;2023-07-29T09:53:44;98889.69;;;18.58;84.31
61906;BME280;47863;55.766;37.672;2023-07-29T09:56:10;98894.06;;;18.59;84.38
61906;BME280;47863;55.766;37.672;2023-07-29T09:58:36;98884.97;;;18.53;84.11
61906;BME280;47863;55.766;37.672;2023-07-29T10:01:06;98902.06;;;18.54;84.45
61906;BME280;47863;55.766;37.672;2023-07-29T10:03:34;98885.56;;;18.43;84.44
61906;BME280;47863;55.766;37.672;2023-07-29T10:06:03;98895.97;;;18.58;84.38
61906;BME280;47863;55.766;37.672;2023-07-29T10:08:30;98886.38;;;18.68;84.03
61906;BME280;47863;55.766;37.672;2023-07-29T10:11:08;98875.31;;;18.69;84.09
61906;BME280;47863;55.766;37.672;2023-07-29T10:13:34;98893.72;;;18.91;83.63
61906;BME280;47863;55.766;37.672;2023-07-29T10:16:00;98870.72;;;18.93;83.59
61906;BME280;47863;55.766;37.672;2023-07-29T10:18:31;98872.97;;;18.96;83.34
61906;BME280;47863;55.766;37.672;2023-07-29T10:20:58;98888.41;;;19.08;83.48
61906;BME280;47863;55.766;37.672;2023-07-29T10:23:26;98895.34;;;19.15;83.14
61906;BME280;47863;55.766;37.672;2023-07-29T10:26:11;98890.25;;;19.19;82.35
61906;BME280;47863;55.766;37.672;2023-07-29T10:28:46;98887.44;;;19.26;82.65
61906;BME280;47863;55.766;37.672;2023-07-29T10:31:18;98887.88;;;19.34;82.87
61906;BME280;47863;55.766;37.672;2023-07-29T10:33:44;98890.69;;;19.39;82.75
61906;BME280;47863;55.766;37.672;2023-07-29T10:36:10;98900.13;;;19.37;82.55
61906;BME280;47863;55.766;37.672;2023-07-29T10:38:36;98904.66;;;19.31;82.47
61906;BME280;47863;55.766;37.672;2023-07-29T10:41:02;98902.63;;;19.27;82.74
61906;BME280;47863;55.766;37.672;2023-07-29T10:43:34;98905.00;;;19.23;82.64
61906;BME280;47863;55.766;37.672;2023-07-29T10:46:18;98908.44;;;19.18;82.34
61906;BME280;47863;55.766;37.672;2023-07-29T10:48:54;98906.81;;;19.17;81.97
61906;BME280;47863;55.766;37.672;2023-07-29T10:53:56;98899.47;;;19.18;82.71
61906;BME280;47863;55.766;37.672;2023-07-29T10:56:35;98894.75;;;19.13;82.69
61906;BME280;47863;55.766;37.672;2023-07-29T11:01:53;98900.44;;;19.12;82.23
61906;BME280;47863;55.766;37.672;2023-07-29T11:12:37;98896.81;;;18.94;82.70
61906;BME280;47863;55.766;37.672;2023-07-29T11:15:25;98891.03;;;18.91;82.75
61906;BME280;47863;55.766;37.672;2023-07-29T11:20:20;98862.94;;;18.85;82.88
61906;BME280;47863;55.766;37.672;2023-07-29T11:22:47;98871.22;;;18.90;82.76
61906;BME280;47863;55.766;37.672;2023-07-29T11:25:14;98864.63;;;18.86;82.50
61906;BME280;47863;55.766;37.672;2023-07-29T11:27:46;98886.88;;;19.12;82.33
61906;BME280;47863;55.766;37.672;2023-07-29T11:30:13;98860.56;;;19.00;82.53
61906;BME280;47863;55.766;37.672;2023-07-29T11:32:41;98834.50;;;18.88;82.33
61906;BME280;47863;55.766;37.672;2023-07-29T11:35:12;98902.88;;;19.25;82.46
61906;BME280;47863;55.766;37.672;2023-07-29T11:37:41;98884.84;;;19.19;82.20
61906;BME280;47863;55.766;37.672;2023-07-29T11:40:07;98893.25;;;19.17;82.38
61906;BME280;47863;55.766;37.672;2023-07-29T11:42:36;98905.34;;;19.27;82.54
61906;BME280;47863;55.766;37.672;2023-07-29T11:45:02;98899.13;;;19.14;82.15
61906;BME280;47863;55.766;37.672;2023-07-29T11:47:32;98900.91;;;19.09;82.32
61906;BME280;47863;55.766;37.672;2023-07-29T11:50:03;98921.69;;;19.03;82.63
61906;BME280;47863;55.766;37.672;2023-07-29T11:52:31;98916.84;;;18.93;82.71
61906;BME280;47863;55.766;37.672;2023-07-29T11:54:58;98867.31;;;18.51;82.79
61906;BME280;47863;55.766;37.672;2023-07-29T11:57:23;98921.06;;;18.77;82.69
61906;BME280;47863;55.766;37.672;2023-07-29T11:59:49;98925.31;;;18.73;82.81
61906;BME280;47863;55.766;37.672;2023-07-29T12:02:19;98933.09;;;18.70;82.71
61906;BME280;47863;55.766;37.672;2023-07-29T12:04:46;98937.94;;;18.68;83.05
61906;BME280;47863;55.766;37.672;2023-07-29T12:07:13;98917.88;;;18.57;82.92
61906;BME280;47863;55.766;37.672;2023-07-29T12:09:41;98913.41;;;18.51;82.75
61906;BME280;47863;55.766;37.672;2023-07-29T12:12:07;98929.78;;;18.56;82.92
61906;BME280;47863;55.766;37.672;2023-07-29T12:14:34;98910.56;;;18.46;82.66
61906;BME280;47863;55.766;37.672;2023-07-29T12:17:04;98913.41;;;18.51;82.54
61906;BME280;47863;55.766;37.672;2023-07-29T12:19:40;98940.06;;;18.66;82.59
61906;BME280;47863;55.766;37.672;2023-07-29T12:22:07;98937.47;;;18.71;82.67
61906;BME280;47863;55.766;37.672;2023-07-29T12:24:35;98916.94;;;18.63;82.44
61906;BME280;47863;55.766;37.672;2023-07-29T12:27:02;98938.31;;;18.83;82.49
61906;BME280;47863;55.766;37.672;2023-07-29T12:29:27;98912.13;;;18.77;82.47
61906;BME280;47863;55.766;37.672;2023-07-29T12:32:02;98925.47;;;18.90;82.41
61906;BME280;47863;55.766;37.672;2023-07-29T12:34:29;98927.34;;;19.01;82.28
61906;BME280;47863;55.766;37.672;2023-07-29T12:36:57;98914.84;;;19.00;81.98
61906;BME280;47863;55.766;37.672;2023-07-29T12:39:27;98902.81;;;18.96;82.22
61906;BME280;47863;55.766;37.672;2023-07-29T12:41:55;98921.31;;;19.11;82.31
61906;BME280;47863;55.766;37.672;2023-07-29T12:44:22;98920.84;;;19.14;82.06
61906;BME280;47863;55.766;37.672;2023-07-29T12:46:48;98905.53;;;19.08;82.12
61906;BME280;47863;55.766;37.672;2023-07-29T12:49:14;98897.84;;;19.05;81.99
61906;BME280;47863;55.766;37.672;2023-07-29T12:51:40;98899.72;;;19.05;82.25
61906;BME280;47863;55.766;37.672;2023-07-29T12:54:06;98914.47;;;19.20;82.21
61906;BME280;47863;55.766;37.672;2023-07-29T12:56:32;98906.81;;;19.17;82.21
61906;BME280;47863;55.766;37.672;2023-07-29T12:58:59;98918.00;;;19.21;81.87
61906;BME280;47863;55.766;37.672;2023-07-29T13:01:25;98911.41;;;19.17;81.89
61906;BME280;47863;55.766;37.672;2023-07-29T13:03:51;98922.16;;;19.24;82.23
61906;BME280;47863;55.766;37.672;2023-07-29T13:06:17;98916.72;;;19.24;81.93
61906;BME280;47863;55.766;37.672;2023-07-29T13:08:45;98915.63;;;19.25;82.03
61906;BME280;47863;55.766;37.672;2023-07-29T13:11:11;98922.72;;;19.26;82.17
61906;BME280;47863;55.766;37.672;2023-07-29T13:13:36;98890.88;;;19.09;82.40
61906;BME280;47863;55.766;37.672;2023-07-29T13:16:02;98911.50;;;19.22;82.04